sensor_id;sensor_type;location;lat;lon;timestamp;pressure;altitude;pressure_sealevel;temperature;humidity
55759;BME280;41678;52.126;20.664;2023-08-01T00:02:14;99478.88;;;18.82;69.04
55759;BME280;41678;52.126;20.664;2023-08-01T00:07:34;99473.59;;;18.81;69.01
55759;BME280;41678;52.126;20.664;2023-08-01T00:12:53;99470.09;;;18.80;69.05
55759;BME280;41678;52.126;20.664;2023-08-01T00:18:12;99471.81;;;18.81;69.37
55759;BME280;41678;52.126;20.664;2023-08-01T00:23:32;99468.34;;;18.79;69.30
55759;BME280;41678;52.126;20.664;2023-08-01T00:28:51;99475.50;;;18.79;69.22
55759;BME280;41678;52.126;20.664;2023-08-01T00:34:10;99471.03;;;18.79;69.31
55759;BME280;41678;52.126;20.664;2023-08-01T00:39:30;99459.44;;;18.80;68.87
55759;BME280;41678;52.126;20.664;2023-08-01T00:50:47;99449.53;;;18.82;69.41
55759;BME280;41678;52.126;20.664;2023-08-01T00:56:07;99432.56;;;18.83;69.24
55759;BME280;41678;52.126;20.664;2023-08-01T01:01:27;99424.78;;;18.80;69.32
55759;BME280;41678;52.126;20.664;2023-08-01T01:06:51;99416.94;;;18.77;69.38
55759;BME280;41678;52.126;20.664;2023-08-01T01:12:12;99418.63;;;18.78;69.36
55759;BME280;41678;52.126;20.664;2023-08-01T01:17:31;99407.22;;;18.76;69.69
55759;BME280;41678;52.126;20.664;2023-08-01T01:22:55;99399.22;;;18.76;69.38
55759;BME280;41678;52.126;20.664;2023-08-01T01:28:15;99392.94;;;18.77;69.59
55759;BME280;41678;52.126;20.664;2023-08-01T01:33:35;99391.97;;;18.78;69.66
55759;BME280;41678;52.126;20.664;2023-08-01T01:38:56;99390.25;;;18.77;69.76
55759;BME280;41678;52.126;20.664;2023-08-01T01:44:15;99379.50;;;18.79;69.40
55759;BME280;41678;52.126;20.664;2023-08-01T01:49:35;99368.94;;;18.77;69.75
55759;BME280;41678;52.126;20.664;2023-08-01T01:54:54;99362.75;;;18.77;69.58
55759;BME280;41678;52.126;20.664;2023-08-01T02:00:15;99356.28;;;18.81;69.54
55759;BME280;41678;52.126;20.664;2023-08-01T02:05:39;99339.78;;;18.74;69.57
55759;BME280;41678;52.126;20.664;2023-08-01T02:10:59;99328.28;;;18.74;69.48
55759;BME280;41678;52.126;20.664;2023-08-01T02:16:18;99324.56;;;18.76;69.48
55759;BME280;41678;52.126;20.664;2023-08-01T02:21:38;99315.78;;;18.74;69.29
55759;BME280;41678;52.126;20.664;2023-08-01T02:26:57;99312.94;;;18.77;69.56
55759;BME280;41678;52.126;20.664;2023-08-01T02:32:17;99300.75;;;18.73;69.57
55759;BME280;41678;52.126;20.664;2023-08-01T02:37:37;99285.03;;;18.68;69.62
55759;BME280;41678;52.126;20.664;2023-08-01T02:42:56;99286.56;;;18.73;69.25
55759;BME280;41678;52.126;20.664;2023-08-01T02:48:15;99289.88;;;18.76;69.34
55759;BME280;41678;52.126;20.664;2023-08-01T02:53:36;99277.78;;;18.71;69.70
55759;BME280;41678;52.126;20.664;2023-08-01T02:58:56;99270.88;;;18.68;69.55
55759;BME280;41678;52.126;20.664;2023-08-01T03:04:16;99266.28;;;18.70;69.92
55759;BME280;41678;52.126;20.664;2023-08-01T03:09:36;99268.00;;;18.71;69.54
55759;BME280;41678;52.126;20.664;2023-08-01T03:14:55;99251.13;;;18.71;69.63
55759;BME280;41678;52.126;20.664;2023-08-01T03:20:14;99248.38;;;18.72;69.59
55759;BME280;41678;52.126;20.664;2023-08-01T03:25:34;99239.63;;;18.70;69.55
55759;BME280;41678;52.126;20.664;2023-08-01T03:30:53;99237.72;;;18.72;69.52
55759;BME280;41678;52.126;20.664;2023-08-01T03:36:13;99236.00;;;18.71;69.70
55759;BME280;41678;52.126;20.664;2023-08-01T03:41:34;99229.63;;;18.74;69.49
55759;BME280;41678;52.126;20.664;2023-08-01T03:46:53;99224.09;;;18.77;69.51
55759;BME280;41678;52.126;20.664;2023-08-01T03:52:14;99220.69;;;18.75;69.53
55759;BME280;41678;52.126;20.664;2023-08-01T03:57:34;99215.03;;;18.79;69.53
55759;BME280;41678;52.126;20.664;2023-08-01T04:02:55;99216.94;;;18.77;69.56
55759;BME280;41678;52.126;20.664;2023-08-01T04:08:15;99218.56;;;18.80;69.61
55759;BME280;41678;52.126;20.664;2023-08-01T04:13:34;99216.94;;;18.77;69.69
55759;BME280;41678;52.126;20.664;2023-08-01T04:18:54;99210.66;;;18.78;69.61
55759;BME280;41678;52.126;20.664;2023-08-01T04:24:13;99211.34;;;18.82;69.26
55759;BME280;41678;52.126;20.664;2023-08-01T04:29:33;99201.63;;;18.81;69.43
55759;BME280;41678;52.126;20.664;2023-08-01T04:34:53;99205.16;;;18.81;69.55
55759;BME280;41678;52.126;20.664;2023-08-01T04:40:13;99196.09;;;18.84;69.41
55759;BME280;41678;52.126;20.664;2023-08-01T04:45:32;99185.13;;;18.89;69.39
55759;BME280;41678;52.126;20.664;2023-08-01T04:50:52;99188.34;;;18.94;69.33
55759;BME280;41678;52.126;20.664;2023-08-01T04:56:12;99194.84;;;19.04;69.20
55759;BME280;41678;52.126;20.664;2023-08-01T05:01:31;99169.88;;;19.05;69.18
55759;BME280;41678;52.126;20.664;2023-08-01T05:06:51;99176.63;;;19.11;69.46
55759;BME280;41678;52.126;20.664;2023-08-01T05:12:10;99176.34;;;19.16;69.10
55759;BME280;41678;52.126;20.664;2023-08-01T05:17:30;99173.25;;;19.22;69.36
55759;BME280;41678;52.126;20.664;2023-08-01T05:22:49;99169.34;;;19.28;68.95
55759;BME280;41678;52.126;20.664;2023-08-01T05:28:09;99166.28;;;19.34;68.72
55759;BME280;41678;52.126;20.664;2023-08-01T05:33:28;99157.84;;;19.40;68.69
55759;BME280;41678;52.126;20.664;2023-08-01T05:38:48;99148.28;;;19.50;68.61
55759;BME280;41678;52.126;20.664;2023-08-01T05:44:07;99151.28;;;19.59;68.41
55759;BME280;41678;52.126;20.664;2023-08-01T05:49:27;99148.09;;;19.66;68.93
55759;BME280;41678;52.126;20.664;2023-08-01T05:54:48;99159.44;;;19.70;68.62
55759;BME280;41678;52.126;20.664;2023-08-01T06:00:08;99158.16;;;19.76;68.76
55759;BME280;41678;52.126;20.664;2023-08-01T06:05:35;99155.06;;;19.82;68.62
55759;BME280;41678;52.126;20.664;2023-08-01T06:10:55;99155.63;;;19.87;68.78
55759;BME280;41678;52.126;20.664;2023-08-01T06:16:15;99144.72;;;19.90;68.63
55759;BME280;41678;52.126;20.664;2023-08-01T06:21:34;99139.84;;;19.97;68.71
55759;BME280;41678;52.126;20.664;2023-08-01T06:26:54;99128.72;;;20.03;68.64
55759;BME280;41678;52.126;20.664;2023-08-01T06:32:13;99114.81;;;20.11;68.37
55759;BME280;41678;52.126;20.664;2023-08-01T06:37:33;99118.78;;;20.18;68.41
55759;BME280;41678;52.126;20.664;2023-08-01T06:42:52;99114.47;;;20.29;68.30
55759;BME280;41678;52.126;20.664;2023-08-01T06:48:11;99116.59;;;20.36;68.35
55759;BME280;41678;52.126;20.664;2023-08-01T06:53:31;99100.03;;;20.44;68.21
55759;BME280;41678;52.126;20.664;2023-08-01T06:58:51;99109.19;;;20.53;68.14
55759;BME280;41678;52.126;20.664;2023-08-01T07:04:10;99094.09;;;20.65;68.03
55759;BME280;41678;52.126;20.664;2023-08-01T07:09:30;99090.25;;;20.69;67.97
55759;BME280;41678;52.126;20.664;2023-08-01T07:14:49;99092.25;;;20.78;67.66
55759;BME280;41678;52.126;20.664;2023-08-01T07:20:09;99082.81;;;20.86;67.65
55759;BME280;41678;52.126;20.664;2023-08-01T07:25:29;99078.50;;;20.96;68.08
55759;BME280;41678;52.126;20.664;2023-08-01T07:30:58;99076.09;;;21.04;67.56
55759;BME280;41678;52.126;20.664;2023-08-01T07:36:17;99073.59;;;21.14;67.81
55759;BME280;41678;52.126;20.664;2023-08-01T07:41:37;99074.94;;;21.20;66.98
55759;BME280;41678;52.126;20.664;2023-08-01T07:46:57;99067.44;;;21.25;67.00
55759;BME280;41678;52.126;20.664;2023-08-01T07:52:17;99056.50;;;21.28;66.95
55759;BME280;41678;52.126;20.664;2023-08-01T07:57:36;99061.50;;;21.33;67.12
55759;BME280;41678;52.126;20.664;2023-08-01T08:02:56;99057.72;;;21.35;67.35
55759;BME280;41678;52.126;20.664;2023-08-01T08:08:17;99057.50;;;21.39;67.52
55759;BME280;41678;52.126;20.664;2023-08-01T08:13:36;99058.09;;;21.42;67.31
55759;BME280;41678;52.126;20.664;2023-08-01T08:18:56;99045.44;;;21.44;67.81
55759;BME280;41678;52.126;20.664;2023-08-01T08:24:15;99043.53;;;21.46;67.56
55759;BME280;41678;52.126;20.664;2023-08-01T08:29:38;99045.97;;;21.49;67.75
55759;BME280;41678;52.126;20.664;2023-08-01T08:34:59;99049.13;;;21.55;68.00
55759;BME280;41678;52.126;20.664;2023-08-01T08:40:19;99045.38;;;21.57;67.73
55759;BME280;41678;52.126;20.664;2023-08-01T08:45:41;99043.06;;;21.64;68.03
55759;BME280;41678;52.126;20.664;2023-08-01T08:51:02;99030.81;;;21.73;67.83
55759;BME280;41678;52.126;20.664;2023-08-01T08:56:24;99029.09;;;21.83;67.37
55759;BME280;41678;52.126;20.664;2023-08-01T09:01:45;99016.06;;;21.90;67.84
55759;BME280;41678;52.126;20.664;2023-08-01T09:07:09;99013.75;;;21.97;67.75
55759;BME280;41678;52.126;20.664;2023-08-01T09:12:34;99024.63;;;22.06;67.52
55759;BME280;41678;52.126;20.664;2023-08-01T09:17:54;99019.59;;;22.13;68.04
55759;BME280;41678;52.126;20.664;2023-08-01T09:23:19;99011.19;;;22.18;67.47
55759;BME280;41678;52.126;20.664;2023-08-01T09:28:39;99023.72;;;22.29;67.90
55759;BME280;41678;52.126;20.664;2023-08-01T09:33:58;99017.03;;;22.34;67.56
55759;BME280;41678;52.126;20.664;2023-08-01T09:39:20;99000.56;;;22.39;67.78
55759;BME280;41678;52.126;20.664;2023-08-01T09:44:45;99010.31;;;22.40;67.90
55759;BME280;41678;52.126;20.664;2023-08-01T09:50:06;99008.34;;;22.42;67.69
55759;BME280;41678;52.126;20.664;2023-08-01T09:55:31;99018.25;;;22.42;67.40
55759;BME280;41678;52.126;20.664;2023-08-01T10:00:51;99014.69;;;22.41;67.73
55759;BME280;41678;52.126;20.664;2023-08-01T10:06:14;99011.53;;;22.36;67.78
55759;BME280;41678;52.126;20.664;2023-08-01T10:11:38;99021.28;;;22.37;68.01
55759;BME280;41678;52.126;20.664;2023-08-01T10:16:59;99010.22;;;22.30;68.41
55759;BME280;41678;52.126;20.664;2023-08-01T10:22:19;99010.84;;;22.22;68.88
55759;BME280;41678;52.126;20.664;2023-08-01T10:27:42;99002.56;;;22.14;69.15
55759;BME280;41678;52.126;20.664;2023-08-01T10:33:02;99005.88;;;22.06;69.52
55759;BME280;41678;52.126;20.664;2023-08-01T10:38:22;99002.94;;;21.98;69.76
55759;BME280;41678;52.126;20.664;2023-08-01T10:43:41;99004.38;;;21.91;69.86
55759;BME280;41678;52.126;20.664;2023-08-01T10:49:01;99001.47;;;21.83;70.06
55759;BME280;41678;52.126;20.664;2023-08-01T10:54:24;99003.69;;;21.77;70.54
55759;BME280;41678;52.126;20.664;2023-08-01T10:59:45;98996.25;;;21.70;70.76
55759;BME280;41678;52.126;20.664;2023-08-01T11:05:07;98989.63;;;21.62;70.97
55759;BME280;41678;52.126;20.664;2023-08-01T11:10:28;98990.59;;;21.61;72.01
55759;BME280;41678;52.126;20.664;2023-08-01T11:15:48;98985.34;;;21.60;71.42
55759;BME280;41678;52.126;20.664;2023-08-01T11:21:08;98976.72;;;21.56;72.02
55759;BME280;41678;52.126;20.664;2023-08-01T11:26:27;98968.69;;;21.56;72.00
55759;BME280;41678;52.126;20.664;2023-08-01T11:31:55;98963.56;;;21.53;72.04
55759;BME280;41678;52.126;20.664;2023-08-01T11:37:20;98949.44;;;21.51;72.49
55759;BME280;41678;52.126;20.664;2023-08-01T11:42:39;98941.41;;;21.51;72.35
55759;BME280;41678;52.126;20.664;2023-08-01T11:47:58;98928.50;;;21.45;72.90
55759;BME280;41678;52.126;20.664;2023-08-01T11:53:19;98916.94;;;21.44;72.75
55759;BME280;41678;52.126;20.664;2023-08-01T11:58:42;98918.66;;;21.45;73.33
55759;BME280;41678;52.126;20.664;2023-08-01T12:04:03;98914.88;;;21.48;72.82
55759;BME280;41678;52.126;20.664;2023-08-01T12:09:22;98903.81;;;21.52;72.38
55759;BME280;41678;52.126;20.664;2023-08-01T12:14:42;98918.78;;;21.55;72.77
55759;BME280;41678;52.126;20.664;2023-08-01T12:20:02;98904.66;;;21.53;72.45
55759;BME280;41678;52.126;20.664;2023-08-01T12:25:22;98903.91;;;21.51;72.30
55759;BME280;41678;52.126;20.664;2023-08-01T12:30:43;98899.53;;;21.50;71.80
55759;BME280;41678;52.126;20.664;2023-08-01T12:36:03;98899.53;;;21.50;72.14
55759;BME280;41678;52.126;20.664;2023-08-01T12:41:22;98894.81;;;21.54;71.88
55759;BME280;41678;52.126;20.664;2023-08-01T12:46:42;98881.06;;;21.58;72.04
55759;BME280;41678;52.126;20.664;2023-08-01T12:52:02;98877.25;;;21.61;72.02
55759;BME280;41678;52.126;20.664;2023-08-01T12:57:22;98877.03;;;21.64;71.72
55759;BME280;41678;52.126;20.664;2023-08-01T13:02:42;98865.75;;;21.72;71.91
55759;BME280;41678;52.126;20.664;2023-08-01T13:08:03;98865.47;;;21.75;72.05
55759;BME280;41678;52.126;20.664;2023-08-01T13:13:23;98859.03;;;21.77;71.66
55759;BME280;41678;52.126;20.664;2023-08-01T13:18:43;98861.31;;;21.82;72.16
55759;BME280;41678;52.126;20.664;2023-08-01T13:24:04;98853.16;;;21.84;72.25
55759;BME280;41678;52.126;20.664;2023-08-01T13:29:24;98850.47;;;21.84;72.26
55759;BME280;41678;52.126;20.664;2023-08-01T13:34:44;98835.28;;;21.84;72.11
55759;BME280;41678;52.126;20.664;2023-08-01T13:40:04;98832.59;;;21.84;72.43
55759;BME280;41678;52.126;20.664;2023-08-01T13:45:24;98839.41;;;21.77;72.96
55759;BME280;41678;52.126;20.664;2023-08-01T13:50:44;98842.34;;;21.74;73.21
55759;BME280;41678;52.126;20.664;2023-08-01T13:56:03;98838.22;;;21.58;74.14
55759;BME280;41678;52.126;20.664;2023-08-01T14:01:23;98842.13;;;21.54;74.33
55759;BME280;41678;52.126;20.664;2023-08-01T14:06:43;98827.50;;;21.47;73.89
55759;BME280;41678;52.126;20.664;2023-08-01T14:12:04;98823.38;;;21.43;73.65
55759;BME280;41678;52.126;20.664;2023-08-01T14:17:24;98817.03;;;21.44;73.27
55759;BME280;41678;52.126;20.664;2023-08-01T14:22:45;98817.31;;;21.41;73.19
55759;BME280;41678;52.126;20.664;2023-08-01T14:28:08;98811.22;;;21.39;73.45
55759;BME280;41678;52.126;20.664;2023-08-01T14:33:28;98807.31;;;21.43;73.42
55759;BME280;41678;52.126;20.664;2023-08-01T14:38:50;98806.34;;;21.44;72.82
55759;BME280;41678;52.126;20.664;2023-08-01T14:44:14;98809.75;;;21.46;73.17
55759;BME280;41678;52.126;20.664;2023-08-01T14:49:34;98796.34;;;21.46;73.05
55759;BME280;41678;52.126;20.664;2023-08-01T14:54:54;98797.34;;;21.45;73.06
55759;BME280;41678;52.126;20.664;2023-08-01T15:00:14;98790.13;;;21.45;73.01
55759;BME280;41678;52.126;20.664;2023-08-01T15:05:33;98788.56;;;21.43;73.29
55759;BME280;41678;52.126;20.664;2023-08-01T15:10:53;98774.94;;;21.46;72.95
55759;BME280;41678;52.126;20.664;2023-08-01T15:16:12;98776.16;;;21.42;73.66
55759;BME280;41678;52.126;20.664;2023-08-01T15:21:32;98772.38;;;21.44;73.26
55759;BME280;41678;52.126;20.664;2023-08-01T15:26:52;98770.66;;;21.43;73.53
55759;BME280;41678;52.126;20.664;2023-08-01T15:32:12;98783.47;;;21.40;73.58
55759;BME280;41678;52.126;20.664;2023-08-01T15:37:31;98795.88;;;21.41;73.67
55759;BME280;41678;52.126;20.664;2023-08-01T15:42:51;98787.84;;;21.41;73.94
55759;BME280;41678;52.126;20.664;2023-08-01T15:48:10;98780.81;;;21.40;74.49
55759;BME280;41678;52.126;20.664;2023-08-01T15:53:30;98789.81;;;21.39;74.12
55759;BME280;41678;52.126;20.664;2023-08-01T15:58:55;98777.97;;;21.41;73.59
55759;BME280;41678;52.126;20.664;2023-08-01T16:04:17;98771.53;;;21.44;74.05
55759;BME280;41678;52.126;20.664;2023-08-01T16:09:37;98785.63;;;21.57;73.64
55759;BME280;41678;52.126;20.664;2023-08-01T16:14:58;98790.00;;;21.58;73.66
55759;BME280;41678;52.126;20.664;2023-08-01T16:20:17;98776.88;;;21.55;74.09
55759;BME280;41678;52.126;20.664;2023-08-01T16:25:38;98781.00;;;21.59;73.89
55759;BME280;41678;52.126;20.664;2023-08-01T16:30:58;98801.81;;;21.56;74.24
55759;BME280;41678;52.126;20.664;2023-08-01T16:36:18;98793.41;;;21.60;73.63
55759;BME280;41678;52.126;20.664;2023-08-01T16:41:38;98790.63;;;21.50;73.76
55759;BME280;41678;52.126;20.664;2023-08-01T16:47:05;98787.34;;;21.47;73.57
55759;BME280;41678;52.126;20.664;2023-08-01T16:52:25;98790.53;;;21.41;73.68
55759;BME280;41678;52.126;20.664;2023-08-01T16:57:45;98794.41;;;21.36;73.86
55759;BME280;41678;52.126;20.664;2023-08-01T17:03:05;98796.63;;;21.31;73.80
55759;BME280;41678;52.126;20.664;2023-08-01T17:08:25;98810.63;;;21.23;73.77
55759;BME280;41678;52.126;20.664;2023-08-01T17:13:44;98801.97;;;21.20;73.74
55759;BME280;41678;52.126;20.664;2023-08-01T17:19:04;98819.97;;;21.18;74.13
55759;BME280;41678;52.126;20.664;2023-08-01T17:24:24;98820.22;;;21.15;73.70
55759;BME280;41678;52.126;20.664;2023-08-01T17:29:43;98818.78;;;21.11;73.58
55759;BME280;41678;52.126;20.664;2023-08-01T17:35:03;98821.91;;;21.04;73.88
55759;BME280;41678;52.126;20.664;2023-08-01T17:40:23;98826.53;;;21.02;73.82
55759;BME280;41678;52.126;20.664;2023-08-01T17:45:42;98824.09;;;20.99;73.82
55759;BME280;41678;52.126;20.664;2023-08-01T17:51:05;98831.88;;;20.91;74.35
55759;BME280;41678;52.126;20.664;2023-08-01T17:56:25;98838.94;;;20.80;74.93
55759;BME280;41678;52.126;20.664;2023-08-01T18:01:45;98843.53;;;20.78;74.60
55759;BME280;41678;52.126;20.664;2023-08-01T18:07:06;98855.28;;;20.76;74.55
55759;BME280;41678;52.126;20.664;2023-08-01T18:12:25;98853.69;;;20.73;74.53
55759;BME280;41678;52.126;20.664;2023-08-01T18:17:45;98859.28;;;20.70;74.69
55759;BME280;41678;52.126;20.664;2023-08-01T18:23:07;98859.78;;;20.64;74.42
55759;BME280;41678;52.126;20.664;2023-08-01T18:28:27;98859.38;;;20.69;74.27
55759;BME280;41678;52.126;20.664;2023-08-01T18:33:47;98865.56;;;20.58;74.67
55759;BME280;41678;52.126;20.664;2023-08-01T18:39:07;98874.56;;;20.57;74.16
55759;BME280;41678;52.126;20.664;2023-08-01T18:44:27;98884.63;;;20.53;74.15
55759;BME280;41678;52.126;20.664;2023-08-01T18:49:46;98883.78;;;20.52;74.16
55759;BME280;41678;52.126;20.664;2023-08-01T18:55:09;98878.88;;;20.46;74.45
55759;BME280;41678;52.126;20.664;2023-08-01T19:00:32;98880.81;;;20.44;74.27
55759;BME280;41678;52.126;20.664;2023-08-01T19:05:59;98879.47;;;20.38;74.53
55759;BME280;41678;52.126;20.664;2023-08-01T19:11:20;98882.28;;;20.37;75.03
55759;BME280;41678;52.126;20.664;2023-08-01T19:16:41;98882.38;;;20.35;74.92
55759;BME280;41678;52.126;20.664;2023-08-01T19:22:01;98880.91;;;20.31;74.59
55759;BME280;41678;52.126;20.664;2023-08-01T19:27:26;98895.34;;;20.29;74.66
55759;BME280;41678;52.126;20.664;2023-08-01T19:32:46;98915.16;;;20.26;74.43
55759;BME280;41678;52.126;20.664;2023-08-01T19:38:08;98916.44;;;20.20;74.57
55759;BME280;41678;52.126;20.664;2023-08-01T19:43:32;98928.72;;;20.23;74.47
55759;BME280;41678;52.126;20.664;2023-08-01T19:48:52;98943.59;;;20.14;74.99
55759;BME280;41678;52.126;20.664;2023-08-01T19:54:15;98935.31;;;20.06;75.04
55759;BME280;41678;52.126;20.664;2023-08-01T19:59:35;98945.91;;;19.94;74.94
55759;BME280;41678;52.126;20.664;2023-08-01T20:04:54;98944.81;;;19.84;75.22
55759;BME280;41678;52.126;20.664;2023-08-01T20:10:16;98947.44;;;19.73;75.06
55759;BME280;41678;52.126;20.664;2023-08-01T20:15:36;98957.78;;;19.64;74.83
55759;BME280;41678;52.126;20.664;2023-08-01T20:20:55;98953.22;;;19.53;74.62
55759;BME280;41678;52.126;20.664;2023-08-01T20:26:17;98950.84;;;19.49;74.81
55759;BME280;41678;52.126;20.664;2023-08-01T20:31:37;98955.69;;;19.44;74.71
55759;BME280;41678;52.126;20.664;2023-08-01T20:36:56;98964.09;;;19.37;75.23
55759;BME280;41678;52.126;20.664;2023-08-01T20:42:17;98960.91;;;19.32;75.11
55759;BME280;41678;52.126;20.664;2023-08-01T20:47:37;98961.34;;;19.26;75.16
55759;BME280;41678;52.126;20.664;2023-08-01T20:52:57;98955.44;;;19.21;75.32
55759;BME280;41678;52.126;20.664;2023-08-01T20:58:20;98958.41;;;19.16;75.78
55759;BME280;41678;52.126;20.664;2023-08-01T21:03:40;98955.13;;;19.13;75.27
55759;BME280;41678;52.126;20.664;2023-08-01T21:08:59;98955.31;;;19.09;75.14
55759;BME280;41678;52.126;20.664;2023-08-01T21:14:18;98952.13;;;19.04;76.81
55759;BME280;41678;52.126;20.664;2023-08-01T21:19:38;98959.47;;;19.01;76.38
55759;BME280;41678;52.126;20.664;2023-08-01T21:24:57;98964.03;;;18.98;75.86
55759;BME280;41678;52.126;20.664;2023-08-01T21:30:19;98957.19;;;18.94;75.92
55759;BME280;41678;52.126;20.664;2023-08-01T21:35:38;98959.22;;;18.91;76.63
55759;BME280;41678;52.126;20.664;2023-08-01T21:40:57;98975.44;;;18.88;76.16
55759;BME280;41678;52.126;20.664;2023-08-01T21:46:17;98972.97;;;18.85;76.74
55759;BME280;41678;52.126;20.664;2023-08-01T21:51:37;98959.84;;;18.81;76.75
55759;BME280;41678;52.126;20.664;2023-08-01T21:56:56;98954.69;;;18.78;76.76
55759;BME280;41678;52.126;20.664;2023-08-01T22:02:16;98958.53;;;18.74;76.21
55759;BME280;41678;52.126;20.664;2023-08-01T22:07:35;98972.81;;;18.73;75.89
55759;BME280;41678;52.126;20.664;2023-08-01T22:12:55;98972.91;;;18.72;76.16
55759;BME280;41678;52.126;20.664;2023-08-01T22:18:16;98967.91;;;18.67;76.69
55759;BME280;41678;52.126;20.664;2023-08-01T22:23:54;98975.13;;;18.65;76.75
55759;BME280;41678;52.126;20.664;2023-08-01T22:29:13;98970.88;;;18.62;76.95
55759;BME280;41678;52.126;20.664;2023-08-01T22:34:33;98976.50;;;18.58;77.42
55759;BME280;41678;52.126;20.664;2023-08-01T22:39:52;98981.09;;;18.55;76.98
55759;BME280;41678;52.126;20.664;2023-08-01T22:45:11;98986.63;;;18.52;77.19
55759;BME280;41678;52.126;20.664;2023-08-01T22:50:31;98995.38;;;18.54;76.67
55759;BME280;41678;52.126;20.664;2023-08-01T22:55:51;98990.25;;;18.51;76.74
55759;BME280;41678;52.126;20.664;2023-08-01T23:01:13;98987.59;;;18.51;77.10
55759;BME280;41678;52.126;20.664;2023-08-01T23:06:33;98994.91;;;18.48;77.40
55759;BME280;41678;52.126;20.664;2023-08-01T23:11:53;98988.84;;;18.46;76.87
55759;BME280;41678;52.126;20.664;2023-08-01T23:17:12;98996.16;;;18.42;77.39
55759;BME280;41678;52.126;20.664;2023-08-01T23:22:32;98990.84;;;18.42;76.95
55759;BME280;41678;52.126;20.664;2023-08-01T23:27:52;98999.13;;;18.37;77.30
55759;BME280;41678;52.126;20.664;2023-08-01T23:33:11;99010.66;;;18.38;76.61
55759;BME280;41678;52.126;20.664;2023-08-01T23:38:31;99011.69;;;18.35;76.75
55759;BME280;41678;52.126;20.664;2023-08-01T23:43:51;99003.03;;;18.32;77.31
55759;BME280;41678;52.126;20.664;2023-08-01T23:49:10;99002.06;;;18.33;77.46
55759;BME280;41678;52.126;20.664;2023-08-01T23:54:30;99003.31;;;18.27;77.18
55759;BME280;41678;52.126;20.664;2023-08-01T23:59:50;99008.66;;;18.27;77.75
